Time;durP1;ratioP1;P1;durP2;ratioP2;P2;SDS_P1;SDS_P2;PMS_P1;PMS_P2;Temp;Humidity;BMP_temperature;BMP_pressure;BME280_temperature;BME280_humidity;BME280_pressure;Samples;Min_cycle;Max_cycle;Signal;HPM_P1;HPM_P2
2021/12/30 00:00:59;;;;;;;;;;;10.80;99.90;;;;;;5106093;28;19920;-73
2021/12/30 00:03:27;;;;;;;;;;;10.90;99.90;;;;;;5105822;28;20204;-73
2021/12/30 00:05:54;;;;;;;;;;;10.90;99.90;;;;;;5105701;28;19920;-73
2021/12/30 00:08:21;;;;;;;;;;;11.00;99.90;;;;;;5105976;28;19974;-72
2021/12/30 00:10:48;;;;;;;;;;;11.00;99.90;;;;;;5105824;28;19924;-72
2021/12/30 00:13:14;;;;;;;;;;;11.00;99.90;;;;;;5105818;28;19920;-72
2021/12/30 00:15:41;;;;;;;;;;;11.10;99.90;;;;;;5105555;28;19988;-72
2021/12/30 00:18:10;;;;;;;;;;;11.10;99.90;;;;;;5105707;28;19920;-72
2021/12/30 00:20:37;;;;;;;;;;;11.10;99.90;;;;;;5105773;28;19927;-72
2021/12/30 00:23:06;;;;;;;;;;;11.10;99.90;;;;;;5105663;28;19926;-72
2021/12/30 00:25:39;;;;;;;;;;;11.10;99.90;;;;;;5105280;28;19920;-72
2021/12/30 00:28:05;;;;;;;;;;;11.10;99.90;;;;;;5105699;28;19958;-72
2021/12/30 00:30:32;;;;;;;;;;;11.20;99.90;;;;;;5105355;28;19930;-72
2021/12/30 00:32:59;;;;;;;;;;;11.20;99.90;;;;;;5105269;28;19946;-72
2021/12/30 00:35:26;;;;;;;;;;;11.20;99.90;;;;;;5105246;28;19920;-72
2021/12/30 00:37:53;;;;;;;;;;;11.20;99.90;;;;;;5105623;28;19943;-72
2021/12/30 00:40:20;;;;;;;;;;;11.20;99.90;;;;;;5105098;28;19927;-72
2021/12/30 00:42:46;;;;;;;;;;;11.20;99.90;;;;;;5106014;28;19920;-72
2021/12/30 00:45:13;;;;;;;;;;;11.20;99.90;;;;;;5104657;28;20230;-72
2021/12/30 00:47:40;;;;;;;;;;;11.20;99.90;;;;;;5105272;28;19924;-72
2021/12/30 00:50:06;;;;;;;;;;;11.20;99.90;;;;;;5105123;28;19920;-72
2021/12/30 00:52:35;;;;;;;;;;;11.20;99.90;;;;;;5104969;28;19926;-72
2021/12/30 00:55:02;;;;;;;;;;;11.20;99.90;;;;;;5103870;28;20230;-72
2021/12/30 00:57:28;;;;;;;;;;;11.20;99.90;;;;;;5104566;28;19928;-72
2021/12/30 00:59:55;;;;;;;;;;;11.30;99.90;;;;;;5104736;28;19920;-72
2021/12/30 01:02:21;;;;;;;;;;;11.30;99.90;;;;;;5105030;28;19926;-72
2021/12/30 01:04:48;;;;;;;;;;;11.30;99.90;;;;;;5104735;28;19927;-72
2021/12/30 01:07:15;;;;;;;;;;;11.20;99.90;;;;;;5104798;28;19928;-71
2021/12/30 01:09:42;;;;;;;;;;;11.20;99.90;;;;;;5104783;28;19920;-72
2021/12/30 01:12:09;;;;;;;;;;;11.20;99.90;;;;;;5104557;28;19920;-72
2021/12/30 01:14:36;;;;;;;;;;;11.20;99.90;;;;;;5104347;28;19920;-73
2021/12/30 01:17:15;;;;;;;;;;;11.20;99.90;;;;;;5104987;28;20179;-72
2021/12/30 01:19:45;;;;;;;;;;;11.20;99.90;;;;;;5104683;28;19983;-72
2021/12/30 01:22:12;;;;;;;;;;;11.20;99.90;;;;;;5104291;28;19966;-72
2021/12/30 01:24:39;;;;;;;;;;;11.20;99.90;;;;;;5103996;28;19920;-72
2021/12/30 01:27:07;;;;;;;;;;;11.20;99.90;;;;;;5104783;28;20200;-72
2021/12/30 01:29:33;;;;;;;;;;;11.20;99.90;;;;;;5104494;28;20135;-72
2021/12/30 01:32:00;;;;;;;;;;;11.30;99.90;;;;;;5104387;28;19934;-72
2021/12/30 01:34:27;;;;;;;;;;;11.30;99.90;;;;;;5103786;28;19920;-72
2021/12/30 01:36:54;;;;;;;;;;;11.20;99.90;;;;;;5104189;28;19927;-72
2021/12/30 01:39:22;;;;;;;;;;;11.30;99.90;;;;;;5104077;28;19920;-72
2021/12/30 01:41:49;;;;;;;;;;;11.30;99.90;;;;;;5104481;28;19920;-72
2021/12/30 01:44:19;;;;;;;;;;;11.20;99.90;;;;;;5103176;28;20196;-73
2021/12/30 01:46:46;;;;;;;;;;;11.20;99.90;;;;;;5104139;28;19927;-72
2021/12/30 01:49:13;;;;;;;;;;;11.20;99.90;;;;;;5104136;28;19926;-72
2021/12/30 01:51:40;;;;;;;;;;;11.20;99.90;;;;;;5103965;28;19924;-72
2021/12/30 01:54:07;;;;;;;;;;;11.20;99.90;;;;;;5103356;28;19920;-75
2021/12/30 01:56:34;;;;;;;;;;;11.20;99.90;;;;;;5104073;28;19920;-72
2021/12/30 01:59:02;;;;;;;;;;;11.20;99.90;;;;;;5104034;28;19992;-73
2021/12/30 02:01:30;;;;;;;;;;;11.20;99.90;;;;;;5103805;28;19920;-74
2021/12/30 02:03:57;;;;;;;;;;;11.20;99.90;;;;;;5103419;28;19927;-73
2021/12/30 02:06:23;;;;;;;;;;;11.10;99.90;;;;;;5103424;28;20208;-74
2021/12/30 02:08:51;;;;;;;;;;;11.10;99.90;;;;;;5103890;28;20100;-73
2021/12/30 02:11:17;;;;;;;;;;;11.10;99.90;;;;;;5103810;28;19920;-73
2021/12/30 02:13:46;;;;;;;;;;;11.10;99.90;;;;;;5103229;28;20211;-73
2021/12/30 02:16:15;;;;;;;;;;;11.10;99.90;;;;;;5103683;28;19943;-73
2021/12/30 02:18:43;;;;;;;;;;;11.10;99.90;;;;;;5103620;28;19920;-74
2021/12/30 02:21:11;;;;;;;;;;;11.10;99.90;;;;;;5103726;28;19927;-75
2021/12/30 02:23:38;;;;;;;;;;;11.10;99.90;;;;;;5103244;28;19920;-73
2021/12/30 02:26:05;;;;;;;;;;;11.10;99.90;;;;;;5103598;28;19983;-73
2021/12/30 02:28:34;;;;;;;;;;;11.10;99.90;;;;;;5103434;28;19920;-75
2021/12/30 02:31:02;;;;;;;;;;;11.20;99.90;;;;;;5103512;28;19927;-74
2021/12/30 02:33:29;;;;;;;;;;;11.20;99.90;;;;;;5103123;28;19920;-74
2021/12/30 02:35:56;;;;;;;;;;;11.20;99.90;;;;;;5103519;28;19927;-73
2021/12/30 02:38:25;;;;;;;;;;;11.20;99.90;;;;;;5103567;28;19927;-73
2021/12/30 02:40:53;;;;;;;;;;;11.20;99.90;;;;;;5103509;28;19927;-73
2021/12/30 02:43:20;;;;;;;;;;;11.20;99.90;;;;;;5103153;28;20266;-73
2021/12/30 02:45:47;;;;;;;;;;;11.20;99.90;;;;;;5102964;28;19920;-73
2021/12/30 02:48:15;;;;;;;;;;;11.20;99.90;;;;;;5103205;28;20267;-74
2021/12/30 02:50:42;;;;;;;;;;;11.20;99.90;;;;;;5103201;28;19927;-73
2021/12/30 02:53:09;;;;;;;;;;;11.20;99.90;;;;;;5103121;28;19924;-75
2021/12/30 02:55:37;;;;;;;;;;;11.20;99.90;;;;;;5103007;28;20119;-74
2021/12/30 02:58:04;;;;;;;;;;;11.20;99.90;;;;;;5103187;28;20234;-74
2021/12/30 03:00:31;;;;;;;;;;;11.20;99.90;;;;;;5102994;28;19928;-74
2021/12/30 03:02:57;;;;;;;;;;;11.20;99.90;;;;;;5102949;28;19934;-74
2021/12/30 03:05:25;;;;;;;;;;;11.20;99.90;;;;;;5102672;28;20223;-74
2021/12/30 03:07:51;;;;;;;;;;;11.20;99.90;;;;;;5103293;28;19942;-73
2021/12/30 03:10:20;;;;;;;;;;;11.20;99.90;;;;;;5103094;28;20212;-74
2021/12/30 03:12:52;;;;;;;;;;;11.20;99.90;;;;;;5103172;28;19926;-73
2021/12/30 03:15:19;;;;;;;;;;;11.20;99.90;;;;;;5102649;28;20124;-73
2021/12/30 03:17:46;;;;;;;;;;;11.20;99.90;;;;;;5103238;28;19920;-74
2021/12/30 03:20:13;;;;;;;;;;;11.20;99.90;;;;;;5105923;28;20223;-73
2021/12/30 03:22:40;;;;;;;;;;;11.20;99.90;;;;;;5106851;28;20131;-74
2021/12/30 03:25:08;;;;;;;;;;;11.20;99.90;;;;;;5106467;28;19927;-74
2021/12/30 03:27:35;;;;;;;;;;;11.20;99.90;;;;;;5106652;28;19924;-73
2021/12/30 03:30:03;;;;;;;;;;;11.20;99.90;;;;;;5106573;28;19920;-74
2021/12/30 03:32:30;;;;;;;;;;;11.20;99.90;;;;;;5106606;28;19927;-73
2021/12/30 03:34:56;;;;;;;;;;;11.20;99.90;;;;;;5106257;28;19927;-74
2021/12/30 03:37:23;;;;;;;;;;;11.20;99.90;;;;;;5106519;28;20229;-73
2021/12/30 03:39:50;;;;;;;;;;;11.20;99.90;;;;;;5106403;28;19920;-72
2021/12/30 03:42:17;;;;;;;;;;;11.10;99.90;;;;;;5106351;28;19955;-74
2021/12/30 03:44:43;;;;;;;;;;;11.10;99.90;;;;;;5106148;28;19920;-72
2021/12/30 03:47:14;;;;;;;;;;;11.10;99.90;;;;;;5106443;28;19920;-73
2021/12/30 03:49:44;;;;;;;;;;;11.10;99.90;;;;;;5106417;28;19924;-73
2021/12/30 03:52:10;;;;;;;;;;;11.00;99.90;;;;;;5106229;28;19990;-74
2021/12/30 03:54:37;;;;;;;;;;;11.10;99.90;;;;;;5105756;28;19920;-73
2021/12/30 03:57:04;;;;;;;;;;;11.00;99.90;;;;;;5106399;28;19923;-72
2021/12/30 03:59:30;;;;;;;;;;;11.00;99.90;;;;;;5106284;28;19927;-73
2021/12/30 04:01:57;;;;;;;;;;;11.00;99.90;;;;;;5105942;28;19927;-74
2021/12/30 04:04:25;;;;;;;;;;;11.00;99.90;;;;;;5105747;28;20215;-72
2021/12/30 04:06:51;;;;;;;;;;;11.00;99.90;;;;;;5106067;28;20120;-73
2021/12/30 04:09:18;;;;;;;;;;;11.00;99.90;;;;;;5105756;28;19927;-73
2021/12/30 04:11:45;;;;;;;;;;;11.00;99.90;;;;;;5106029;28;19995;-75
2021/12/30 04:14:11;;;;;;;;;;;11.00;99.90;;;;;;5105824;28;20119;-73
2021/12/30 04:16:38;;;;;;;;;;;11.00;99.90;;;;;;5105735;28;19924;-73
2021/12/30 04:19:05;;;;;;;;;;;10.90;99.90;;;;;;5105809;28;19920;-73
2021/12/30 04:21:33;;;;;;;;;;;11.00;99.90;;;;;;5105659;28;19924;-74
2021/12/30 04:24:00;;;;;;;;;;;10.90;99.90;;;;;;5105229;28;20226;-74
2021/12/30 04:26:27;;;;;;;;;;;11.00;99.90;;;;;;5105683;28;19924;-73
2021/12/30 04:28:53;;;;;;;;;;;11.00;99.90;;;;;;5105854;28;19920;-74
2021/12/30 04:31:20;;;;;;;;;;;10.90;99.90;;;;;;5104109;28;19920;-73
2021/12/30 04:33:46;;;;;;;;;;;11.00;99.90;;;;;;5105159;28;19935;-72
2021/12/30 04:36:14;;;;;;;;;;;11.00;99.90;;;;;;5105279;28;19920;-73
2021/12/30 04:38:41;;;;;;;;;;;10.90;99.90;;;;;;5105321;28;19920;-73
2021/12/30 04:41:08;;;;;;;;;;;10.90;99.90;;;;;;5105492;28;19987;-73
2021/12/30 04:43:35;;;;;;;;;;;11.00;99.90;;;;;;5104987;28;19920;-73
2021/12/30 04:46:02;;;;;;;;;;;11.00;99.90;;;;;;5105090;28;20201;-73
2021/12/30 04:48:30;;;;;;;;;;;10.90;99.90;;;;;;5104923;28;19920;-73
2021/12/30 04:50:56;;;;;;;;;;;11.00;99.90;;;;;;5105004;28;19927;-71
2021/12/30 04:53:23;;;;;;;;;;;10.90;99.90;;;;;;5104687;28;19920;-72
2021/12/30 04:55:51;;;;;;;;;;;10.90;99.90;;;;;;5104785;28;19920;-74
2021/12/30 04:58:18;;;;;;;;;;;10.90;99.90;;;;;;5105024;28;19920;-73
2021/12/30 05:00:45;;;;;;;;;;;10.90;99.90;;;;;;5105026;28;19920;-73
2021/12/30 05:03:13;;;;;;;;;;;10.90;99.90;;;;;;5105151;28;19927;-72
2021/12/30 05:05:40;;;;;;;;;;;10.90;99.90;;;;;;5104485;28;19920;-73
2021/12/30 05:08:07;;;;;;;;;;;10.90;99.90;;;;;;5104813;28;19920;-73
2021/12/30 05:10:34;;;;;;;;;;;11.00;99.90;;;;;;5104777;28;19926;-74
2021/12/30 05:13:03;;;;;;;;;;;11.00;99.90;;;;;;5104694;28;20231;-73
2021/12/30 05:15:29;;;;;;;;;;;11.00;99.90;;;;;;5104265;28;19920;-74
2021/12/30 05:17:56;;;;;;;;;;;11.00;99.90;;;;;;5104951;28;19923;-73
2021/12/30 05:20:23;;;;;;;;;;;11.00;99.90;;;;;;5104298;28;20124;-75
2021/12/30 05:22:50;;;;;;;;;;;11.00;99.90;;;;;;5104355;28;19920;-73
2021/12/30 05:25:18;;;;;;;;;;;11.00;99.90;;;;;;5104307;28;19924;-73
2021/12/30 05:27:44;;;;;;;;;;;11.00;99.90;;;;;;5104637;28;19926;-73
2021/12/30 05:30:14;;;;;;;;;;;11.00;99.90;;;;;;5104328;28;19920;-74
2021/12/30 05:32:44;;;;;;;;;;;11.00;99.90;;;;;;5105385;28;20115;-73
2021/12/30 05:35:12;;;;;;;;;;;11.00;99.90;;;;;;5103974;28;20222;-73
2021/12/30 05:37:38;;;;;;;;;;;11.00;99.90;;;;;;5104338;28;19927;-73
2021/12/30 05:40:07;;;;;;;;;;;11.00;99.90;;;;;;5104861;28;19951;-73
2021/12/30 05:42:35;;;;;;;;;;;11.00;99.90;;;;;;5105261;28;19920;-73
2021/12/30 05:45:01;;;;;;;;;;;11.00;99.90;;;;;;5104519;28;19927;-73
2021/12/30 05:47:29;;;;;;;;;;;11.10;99.90;;;;;;5103955;28;20000;-73
2021/12/30 05:49:56;;;;;;;;;;;11.10;99.90;;;;;;5104247;28;20228;-73
2021/12/30 05:52:23;;;;;;;;;;;11.10;99.90;;;;;;5104394;28;19962;-73
2021/12/30 05:54:49;;;;;;;;;;;11.10;99.90;;;;;;5103950;28;19926;-73
2021/12/30 05:57:16;;;;;;;;;;;11.00;99.90;;;;;;5104479;28;19927;-73
2021/12/30 05:59:43;;;;;;;;;;;11.00;99.90;;;;;;5104174;28;20115;-73
2021/12/30 06:02:09;;;;;;;;;;;11.00;99.90;;;;;;5103663;28;19951;-73
2021/12/30 06:04:37;;;;;;;;;;;11.00;99.90;;;;;;5103959;28;19927;-73
2021/12/30 06:07:04;;;;;;;;;;;11.10;99.90;;;;;;5103902;28;19947;-73
2021/12/30 06:09:30;;;;;;;;;;;11.10;99.90;;;;;;5103792;28;19926;-74
2021/12/30 06:11:57;;;;;;;;;;;11.10;99.90;;;;;;5103699;28;19984;-74
2021/12/30 06:14:23;;;;;;;;;;;11.10;99.90;;;;;;5103221;28;19920;-74
2021/12/30 06:16:50;;;;;;;;;;;11.10;99.90;;;;;;5103664;28;19920;-73
2021/12/30 06:19:16;;;;;;;;;;;11.10;99.90;;;;;;5103723;28;19920;-73
2021/12/30 06:21:44;;;;;;;;;;;11.20;99.90;;;;;;5103628;28;19927;-73
2021/12/30 06:24:11;;;;;;;;;;;11.20;99.90;;;;;;5103376;28;19942;-74
2021/12/30 06:26:38;;;;;;;;;;;11.20;99.90;;;;;;5103411;28;20230;-73
2021/12/30 06:29:05;;;;;;;;;;;11.20;99.90;;;;;;5103679;28;19910;-73
2021/12/30 06:31:31;;;;;;;;;;;11.20;99.90;;;;;;5103502;28;19920;-73
2021/12/30 06:33:58;;;;;;;;;;;11.10;99.90;;;;;;5102891;28;20190;-74
2021/12/30 06:36:24;;;;;;;;;;;11.20;99.90;;;;;;5103313;28;20208;-74
2021/12/30 06:38:52;;;;;;;;;;;11.20;99.90;;;;;;5103431;28;19920;-73
2021/12/30 06:41:19;;;;;;;;;;;11.20;99.90;;;;;;5103274;28;19991;-74
2021/12/30 06:43:46;;;;;;;;;;;11.30;99.90;;;;;;5095939;28;19997;-73
2021/12/30 06:46:12;;;;;;;;;;;11.30;99.90;;;;;;5082929;28;19927;-74
2021/12/30 06:48:44;;;;;;;;;;;11.30;99.90;;;;;;5095818;28;19920;-73
2021/12/30 06:51:11;;;;;;;;;;;11.30;99.90;;;;;;5103288;28;20211;-72
2021/12/30 06:53:37;;;;;;;;;;;11.30;99.90;;;;;;5084768;28;19920;-73
2021/12/30 06:56:06;;;;;;;;;;;11.30;99.90;;;;;;5087345;28;20108;-73
2021/12/30 06:58:33;;;;;;;;;;;11.30;99.90;;;;;;5087175;28;19927;-72
2021/12/30 07:00:59;;;;;;;;;;;11.30;99.90;;;;;;5086805;28;20273;-73
2021/12/30 07:03:26;;;;;;;;;;;11.40;99.90;;;;;;5086978;28;19927;-74
2021/12/30 07:05:54;;;;;;;;;;;11.40;99.90;;;;;;5086565;28;20216;-74
2021/12/30 07:08:21;;;;;;;;;;;11.40;99.90;;;;;;5086795;28;19948;-73
2021/12/30 07:10:48;;;;;;;;;;;11.40;99.90;;;;;;5086596;28;19920;-73
2021/12/30 07:13:15;;;;;;;;;;;11.40;99.90;;;;;;5086864;28;19920;-73
2021/12/30 07:15:42;;;;;;;;;;;11.40;99.90;;;;;;5086235;28;19921;-74
2021/12/30 07:18:09;;;;;;;;;;;11.40;99.90;;;;;;5086737;28;19920;-74
2021/12/30 07:20:35;;;;;;;;;;;11.30;99.90;;;;;;5086522;28;19920;-73
2021/12/30 07:23:02;;;;;;;;;;;11.40;99.90;;;;;;5086309;28;19920;-72
2021/12/30 07:25:28;;;;;;;;;;;11.40;99.90;;;;;;5085883;28;19928;-73
2021/12/30 07:27:55;;;;;;;;;;;11.40;99.90;;;;;;5086444;28;19921;-73
2021/12/30 07:30:24;;;;;;;;;;;11.40;99.90;;;;;;5086274;28;20116;-73
2021/12/30 07:32:51;;;;;;;;;;;11.40;99.90;;;;;;5086329;28;19920;-73
2021/12/30 07:35:18;;;;;;;;;;;11.40;99.90;;;;;;5085893;28;19920;-74
2021/12/30 07:37:45;;;;;;;;;;;11.40;99.90;;;;;;5086101;28;19992;-72
2021/12/30 07:40:12;;;;;;;;;;;11.40;99.90;;;;;;5086028;28;19924;-73
2021/12/30 07:42:39;;;;;;;;;;;11.50;99.90;;;;;;5086150;28;20145;-73
2021/12/30 07:45:06;;;;;;;;;;;11.50;99.90;;;;;;5086149;28;19966;-74
2021/12/30 07:47:34;;;;;;;;;;;11.50;99.90;;;;;;5086090;28;19920;-73
2021/12/30 07:50:00;;;;;;;;;;;11.40;99.90;;;;;;5085951;28;20125;-73
2021/12/30 07:52:27;;;;;;;;;;;11.50;99.90;;;;;;5085778;28;19926;-73
2021/12/30 07:54:53;;;;;;;;;;;11.40;99.90;;;;;;5085679;28;20108;-72
2021/12/30 07:57:22;;;;;;;;;;;11.40;99.90;;;;;;5086017;28;20155;-73
2021/12/30 07:59:49;;;;;;;;;;;11.50;99.90;;;;;;5086147;28;19974;-72
2021/12/30 08:02:16;;;;;;;;;;;11.40;99.90;;;;;;5085877;28;20208;-73
2021/12/30 08:04:44;;;;;;;;;;;11.40;99.90;;;;;;5085128;28;19921;-73
2021/12/30 08:07:10;;;;;;;;;;;11.40;99.90;;;;;;5086007;28;19932;-73
2021/12/30 08:09:37;;;;;;;;;;;11.50;99.90;;;;;;5085669;28;19985;-72
2021/12/30 08:12:04;;;;;;;;;;;11.50;99.90;;;;;;5085529;28;19927;-73
2021/12/30 08:14:30;;;;;;;;;;;11.50;99.90;;;;;;5085111;28;20200;-72
2021/12/30 08:16:57;;;;;;;;;;;11.50;99.90;;;;;;5085536;28;19920;-72
2021/12/30 08:19:23;;;;;;;;;;;11.60;99.90;;;;;;5085295;28;19921;-71
2021/12/30 08:21:52;;;;;;;;;;;11.60;99.90;;;;;;5085611;28;19927;-72
2021/12/30 08:24:19;;;;;;;;;;;11.50;99.90;;;;;;5084946;28;20212;-72
2021/12/30 08:26:45;;;;;;;;;;;11.50;99.90;;;;;;5085488;28;19920;-72
2021/12/30 08:29:12;;;;;;;;;;;11.50;99.90;;;;;;5085288;28;19927;-72
2021/12/30 08:31:39;;;;;;;;;;;11.60;99.90;;;;;;5085312;28;19920;-72
2021/12/30 08:34:06;;;;;;;;;;;11.60;99.90;;;;;;5084695;28;19927;-72
2021/12/30 08:36:33;;;;;;;;;;;11.60;99.90;;;;;;5085166;28;19920;-72
2021/12/30 08:39:01;;;;;;;;;;;11.60;99.90;;;;;;5085101;28;19927;-72
2021/12/30 08:41:28;;;;;;;;;;;11.60;99.90;;;;;;5085027;28;19920;-72
2021/12/30 08:43:54;;;;;;;;;;;11.70;99.90;;;;;;5084634;28;19920;-72
2021/12/30 08:46:21;;;;;;;;;;;11.70;99.90;;;;;;5084902;28;19924;-72
2021/12/30 08:48:47;;;;;;;;;;;11.70;99.90;;;;;;5084806;28;19924;-72
2021/12/30 08:51:14;;;;;;;;;;;11.70;99.90;;;;;;5085016;28;19920;-72
2021/12/30 08:53:41;;;;;;;;;;;11.80;99.90;;;;;;5084329;28;19920;-72
2021/12/30 08:56:11;;;;;;;;;;;11.80;99.90;;;;;;5084621;28;20231;-72
2021/12/30 08:58:38;;;;;;;;;;;11.70;99.90;;;;;;5084635;28;19920;-72
2021/12/30 09:01:04;;;;;;;;;;;11.80;99.90;;;;;;5085568;28;19920;-72
2021/12/30 09:03:31;;;;;;;;;;;11.80;99.90;;;;;;5085091;28;19984;-72
2021/12/30 09:05:57;;;;;;;;;;;11.90;99.90;;;;;;5084444;28;19920;-73
2021/12/30 09:08:24;;;;;;;;;;;11.90;99.90;;;;;;5084649;28;19921;-71
2021/12/30 09:10:51;;;;;;;;;;;11.90;99.90;;;;;;5084517;28;19943;-73
2021/12/30 09:13:20;;;;;;;;;;;11.90;99.90;;;;;;5084276;28;19927;-72
2021/12/30 09:15:47;;;;;;;;;;;11.90;99.90;;;;;;5083839;28;19927;-72
2021/12/30 09:18:13;;;;;;;;;;;11.90;99.90;;;;;;5083777;28;19920;-72
2021/12/30 09:20:40;;;;;;;;;;;11.90;99.90;;;;;;5084306;28;19943;-72
2021/12/30 09:23:09;;;;;;;;;;;12.00;99.90;;;;;;5084088;28;19927;-72
2021/12/30 09:25:37;;;;;;;;;;;12.00;99.90;;;;;;5083783;28;19935;-72
2021/12/30 09:28:04;;;;;;;;;;;12.00;99.90;;;;;;5083882;28;20234;-72
2021/12/30 09:30:32;;;;;;;;;;;12.00;99.90;;;;;;5084140;28;20034;-72
2021/12/30 09:33:00;;;;;;;;;;;12.10;99.90;;;;;;5084034;28;19935;-72
2021/12/30 09:35:27;;;;;;;;;;;12.10;99.90;;;;;;5085646;28;19966;-73
2021/12/30 09:37:54;;;;;;;;;;;12.10;99.90;;;;;;5083746;28;20239;-73
2021/12/30 09:40:20;;;;;;;;;;;12.10;99.90;;;;;;5083887;28;19928;-73
2021/12/30 09:42:52;;;;;;;;;;;12.20;99.90;;;;;;5083554;28;19921;-73
2021/12/30 09:45:19;;;;;;;;;;;12.20;99.90;;;;;;5083547;28;19943;-72
2021/12/30 09:47:49;;;;;;;;;;;12.20;99.90;;;;;;5083701;28;19920;-72
2021/12/30 09:50:16;;;;;;;;;;;12.20;99.90;;;;;;5083680;28;19920;-72
2021/12/30 09:52:43;;;;;;;;;;;12.20;99.90;;;;;;5083642;28;19920;-72
2021/12/30 09:55:10;;;;;;;;;;;12.20;99.90;;;;;;5083293;28;20200;-72
2021/12/30 09:57:36;;;;;;;;;;;12.30;99.90;;;;;;5083311;28;20216;-72
2021/12/30 10:00:04;;;;;;;;;;;12.30;99.90;;;;;;5083619;28;19924;-72
2021/12/30 10:02:30;;;;;;;;;;;12.30;99.90;;;;;;5084105;28;20211;-73
2021/12/30 10:05:05;;;;;;;;;;;12.30;99.90;;;;;;5083288;28;19920;-72
2021/12/30 10:07:31;;;;;;;;;;;12.40;99.90;;;;;;5084012;28;19927;-72
2021/12/30 10:10:01;;;;;;;;;;;12.40;99.90;;;;;;5083139;28;19920;-72
2021/12/30 10:12:35;;;;;;;;;;;12.40;99.90;;;;;;5083588;28;19920;-72
2021/12/30 10:15:02;;;;;;;;;;;12.40;99.90;;;;;;5082961;28;19991;-72
2021/12/30 10:17:29;;;;;;;;;;;12.40;99.90;;;;;;5083296;28;19920;-72
2021/12/30 10:19:56;;;;;;;;;;;12.50;99.90;;;;;;5083426;28;19927;-72
2021/12/30 10:22:25;;;;;;;;;;;12.50;99.90;;;;;;5083017;28;19928;-72
2021/12/30 10:24:52;;;;;;;;;;;12.50;99.90;;;;;;5083095;28;19924;-72
2021/12/30 10:27:22;;;;;;;;;;;12.50;99.90;;;;;;5083301;28;20154;-72
2021/12/30 10:29:49;;;;;;;;;;;12.50;99.90;;;;;;5083185;28;19920;-72
2021/12/30 10:32:16;;;;;;;;;;;12.50;99.90;;;;;;5083279;28;19921;-71
2021/12/30 10:35:02;;;;;;;;;;;12.50;99.90;;;;;;5082714;28;19927;-72
2021/12/30 10:37:31;;;;;;;;;;;12.50;99.90;;;;;;5083231;28;19920;-72
2021/12/30 10:39:57;;;;;;;;;;;12.60;99.90;;;;;;5083337;28;19927;-72
2021/12/30 10:42:25;;;;;;;;;;;12.60;99.90;;;;;;5083163;28;19927;-72
2021/12/30 10:44:53;;;;;;;;;;;12.60;99.90;;;;;;5082751;28;20124;-72
2021/12/30 10:47:20;;;;;;;;;;;12.60;99.90;;;;;;5082992;28;19924;-72
2021/12/30 10:49:55;;;;;;;;;;;12.60;99.90;;;;;;5083486;28;20162;-72
2021/12/30 10:52:22;;;;;;;;;;;12.60;99.90;;;;;;5083147;28;19920;-73
2021/12/30 10:54:50;;;;;;;;;;;12.60;99.90;;;;;;5082657;28;20208;-73
2021/12/30 10:57:16;;;;;;;;;;;12.60;99.90;;;;;;5083008;28;19928;-73
2021/12/30 10:59:44;;;;;;;;;;;12.70;99.90;;;;;;5082975;28;19920;-73
2021/12/30 11:02:12;;;;;;;;;;;12.70;99.90;;;;;;5082910;28;19920;-73
2021/12/30 11:04:40;;;;;;;;;;;12.80;99.90;;;;;;5082728;28;19921;-73
2021/12/30 11:07:08;;;;;;;;;;;12.80;99.90;;;;;;5082987;28;19987;-73
2021/12/30 11:09:35;;;;;;;;;;;12.80;99.90;;;;;;5082976;28;19927;-73
2021/12/30 11:12:04;;;;;;;;;;;12.80;99.90;;;;;;5082775;28;19924;-73
2021/12/30 11:14:32;;;;;;;;;;;12.90;99.90;;;;;;5082219;28;19926;-73
2021/12/30 11:17:05;;;;;;;;;;;12.90;99.90;;;;;;5082892;28;19927;-73
2021/12/30 11:19:34;;;;;;;;;;;12.90;99.90;;;;;;5082900;28;19920;-73
2021/12/30 11:22:02;;;;;;;;;;;13.00;99.90;;;;;;5082766;28;19924;-73
2021/12/30 11:24:30;;;;;;;;;;;13.00;99.90;;;;;;5082103;28;20205;-73
2021/12/30 11:26:56;;;;;;;;;;;13.00;99.90;;;;;;5082672;28;19924;-73
2021/12/30 11:29:24;;;;;;;;;;;13.00;99.90;;;;;;5082651;28;19927;-73
2021/12/30 11:31:51;;;;;;;;;;;13.00;99.90;;;;;;5082796;28;19920;-73
2021/12/30 11:34:18;;;;;;;;;;;13.00;99.90;;;;;;5082186;28;19988;-73
2021/12/30 11:36:45;;;;;;;;;;;13.00;99.90;;;;;;5082495;28;19920;-73
2021/12/30 11:39:13;;;;;;;;;;;13.00;99.90;;;;;;5082505;28;19928;-73
2021/12/30 11:41:40;;;;;;;;;;;13.00;99.90;;;;;;5085943;28;20272;-73
2021/12/30 11:44:07;;;;;;;;;;;13.00;99.90;;;;;;5086052;28;19921;-73
2021/12/30 11:46:42;;;;;;;;;;;13.00;99.90;;;;;;5086162;28;19928;-73
2021/12/30 11:49:10;;;;;;;;;;;13.00;99.90;;;;;;5086207;28;19920;-73
2021/12/30 11:51:46;;;;;;;;;;;12.90;99.90;;;;;;5086007;28;19927;-73
2021/12/30 11:54:33;;;;;;;;;;;12.90;99.90;;;;;;5085472;28;19935;-72
2021/12/30 11:57:18;;;;;;;;;;;12.90;99.90;;;;;;5085830;28;20204;-73
2021/12/30 11:59:44;;;;;;;;;;;12.90;99.90;;;;;;5085951;28;20022;-73
2021/12/30 12:02:28;;;;;;;;;;;12.90;99.90;;;;;;5085784;28;19920;-73
2021/12/30 12:04:55;;;;;;;;;;;12.90;99.90;;;;;;5085248;28;19920;-73
2021/12/30 12:07:22;;;;;;;;;;;12.90;99.90;;;;;;5085791;28;19920;-73
2021/12/30 12:09:49;;;;;;;;;;;12.90;99.90;;;;;;5085634;28;19956;-73
2021/12/30 12:12:29;;;;;;;;;;;12.90;99.90;;;;;;5085628;28;19924;-73
2021/12/30 12:14:59;;;;;;;;;;;12.90;99.90;;;;;;5085216;28;20123;-72
2021/12/30 12:17:35;;;;;;;;;;;12.90;99.90;;;;;;5085693;28;19955;-73
2021/12/30 12:20:13;;;;;;;;;;;12.90;99.90;;;;;;5085662;28;19921;-73
2021/12/30 12:22:39;;;;;;;;;;;12.90;99.90;;;;;;5085446;28;19927;-72
2021/12/30 12:25:08;;;;;;;;;;;12.90;99.90;;;;;;5084951;28;19924;-72
2021/12/30 12:27:36;;;;;;;;;;;12.90;99.90;;;;;;5085205;28;19928;-73
2021/12/30 12:30:04;;;;;;;;;;;13.00;99.90;;;;;;5085221;28;19983;-73
2021/12/30 12:32:39;;;;;;;;;;;13.00;99.90;;;;;;5085220;28;19920;-73
2021/12/30 12:35:23;;;;;;;;;;;13.00;99.90;;;;;;5085132;28;19966;-73
2021/12/30 12:37:52;;;;;;;;;;;12.90;99.90;;;;;;5085070;28;20223;-74
2021/12/30 12:40:23;;;;;;;;;;;13.00;99.90;;;;;;5085318;28;19924;-74
2021/12/30 12:42:55;;;;;;;;;;;12.90;99.90;;;;;;5084955;28;19920;-73
2021/12/30 12:45:23;;;;;;;;;;;12.90;99.90;;;;;;5084958;28;19956;-73
2021/12/30 12:48:12;;;;;;;;;;;13.00;99.90;;;;;;5085019;28;19943;-73
2021/12/30 12:50:39;;;;;;;;;;;12.90;99.90;;;;;;5084458;28;19921;-73
2021/12/30 12:53:19;;;;;;;;;;;13.00;99.90;;;;;;5083932;28;20201;-72
2021/12/30 12:55:45;;;;;;;;;;;13.00;99.90;;;;;;5084455;28;19926;-72
2021/12/30 12:58:12;;;;;;;;;;;13.00;99.90;;;;;;5084820;28;19943;-72
2021/12/30 13:00:39;;;;;;;;;;;13.00;99.90;;;;;;5084453;28;19920;-73
2021/12/30 13:03:09;;;;;;;;;;;13.00;99.90;;;;;;5084794;28;19956;-73
2021/12/30 13:05:36;;;;;;;;;;;13.10;99.90;;;;;;5084488;28;19971;-73
2021/12/30 13:08:03;;;;;;;;;;;13.00;99.90;;;;;;5084537;28;19920;-73
2021/12/30 13:10:29;;;;;;;;;;;13.10;99.90;;;;;;5084873;28;19927;-73
2021/12/30 13:13:00;;;;;;;;;;;13.10;99.90;;;;;;5084420;28;19920;-73
2021/12/30 13:15:26;;;;;;;;;;;13.10;99.90;;;;;;5084179;28;19966;-73
2021/12/30 13:17:53;;;;;;;;;;;13.10;99.90;;;;;;5084486;28;19920;-73
2021/12/30 13:20:25;;;;;;;;;;;13.10;99.90;;;;;;5084302;28;19921;-73
2021/12/30 13:22:56;;;;;;;;;;;13.10;99.90;;;;;;5084199;28;19920;-73
2021/12/30 13:25:22;;;;;;;;;;;13.10;99.90;;;;;;5083882;28;19927;-73
2021/12/30 13:27:50;;;;;;;;;;;13.10;99.90;;;;;;5084025;28;19920;-73
2021/12/30 13:30:17;;;;;;;;;;;13.10;99.90;;;;;;5084429;28;20116;-73
2021/12/30 13:32:46;;;;;;;;;;;13.20;99.90;;;;;;5084180;28;19920;-73
2021/12/30 13:35:14;;;;;;;;;;;13.10;99.90;;;;;;5084098;28;19920;-74
2021/12/30 13:37:43;;;;;;;;;;;13.20;99.90;;;;;;5083942;28;19978;-74
2021/12/30 13:40:15;;;;;;;;;;;13.20;99.90;;;;;;5083927;28;19921;-74
2021/12/30 13:42:46;;;;;;;;;;;13.20;99.90;;;;;;5083709;28;19928;-73
2021/12/30 13:45:13;;;;;;;;;;;13.20;99.90;;;;;;5083666;28;19982;-73
2021/12/30 13:47:39;;;;;;;;;;;13.20;99.90;;;;;;5083860;28;19921;-73
2021/12/30 13:50:07;;;;;;;;;;;13.20;99.90;;;;;;5083821;28;19920;-72
2021/12/30 13:52:35;;;;;;;;;;;13.20;99.90;;;;;;5084243;28;19927;-73
2021/12/30 13:55:11;;;;;;;;;;;13.20;99.90;;;;;;5083151;28;19920;-72
2021/12/30 13:57:38;;;;;;;;;;;13.20;99.90;;;;;;5083308;28;19920;-72
2021/12/30 14:00:06;;;;;;;;;;;13.20;99.90;;;;;;5082330;28;19921;-72
2021/12/30 14:02:32;;;;;;;;;;;13.20;99.90;;;;;;5082118;28;20115;-72
2021/12/30 14:05:04;;;;;;;;;;;13.20;99.90;;;;;;5081295;28;19920;-74
2021/12/30 14:07:32;;;;;;;;;;;13.20;99.90;;;;;;5082803;28;19921;-71
2021/12/30 14:09:59;;;;;;;;;;;13.20;99.90;;;;;;5105920;28;19920;-73
2021/12/30 14:12:27;;;;;;;;;;;13.20;99.90;;;;;;5098257;28;19926;-73
2021/12/30 14:14:54;;;;;;;;;;;13.10;99.90;;;;;;5103669;28;20162;-73
2021/12/30 14:17:20;;;;;;;;;;;13.10;99.90;;;;;;5114828;28;19951;-73
2021/12/30 14:19:49;;;;;;;;;;;13.10;99.90;;;;;;5123689;28;19924;-74